createdAt,value
2023-11-01T00:01:38.305Z,56.72
2023-11-01T00:03:40.237Z,56.71
2023-11-01T00:05:42.157Z,56.68
2023-11-01T00:07:44.004Z,56.96
2023-11-01T00:09:45.519Z,56.75
2023-11-01T00:11:47.236Z,56.65
2023-11-01T00:13:48.747Z,56.63
2023-11-01T00:15:50.242Z,56.98
2023-11-01T00:17:51.829Z,57.05
2023-11-01T00:19:53.382Z,56.94
2023-11-01T00:21:54.927Z,56.69
2023-11-01T00:23:56.622Z,56.75
2023-11-01T00:25:58.238Z,56.82
2023-11-01T00:27:59.952Z,56.76
2023-11-01T00:30:01.723Z,56.92
2023-11-01T00:32:03.391Z,56.76
2023-11-01T00:34:05.003Z,56.78
2023-11-01T00:36:06.700Z,56.80
2023-11-01T00:38:08.664Z,56.62
2023-11-01T00:40:10.733Z,56.78
2023-11-01T00:42:12.228Z,56.66
2023-11-01T00:44:13.803Z,56.91
2023-11-01T00:46:15.725Z,56.62
2023-11-01T00:48:17.297Z,56.88
2023-11-01T00:50:19.049Z,56.83
2023-11-01T00:52:20.715Z,56.59
2023-11-01T00:54:22.266Z,56.68
2023-11-01T00:56:23.840Z,56.85
2023-11-01T00:58:25.724Z,56.96
2023-11-01T01:00:27.308Z,56.70
2023-11-01T01:02:29.249Z,56.94
2023-11-01T01:04:30.944Z,56.83
2023-11-01T01:06:32.489Z,56.92
2023-11-01T01:08:34.134Z,56.78
2023-11-01T01:10:38.856Z,56.73
2023-11-01T01:12:40.507Z,56.90
2023-11-01T01:14:42.097Z,56.76
2023-11-01T01:16:43.747Z,56.91
2023-11-01T01:18:45.457Z,56.63
2023-11-01T01:20:48.478Z,56.79
2023-11-01T01:22:50.106Z,56.76
2023-11-01T01:24:51.600Z,56.64
2023-11-01T01:26:53.137Z,56.85
2023-11-01T01:28:54.674Z,56.76
2023-11-01T01:30:56.206Z,56.59
2023-11-01T01:32:57.871Z,56.77
2023-11-01T01:34:59.847Z,56.63
2023-11-01T01:37:01.688Z,56.69
2023-11-01T01:39:03.437Z,56.60
2023-11-01T01:41:05.794Z,56.80
2023-11-01T01:43:24.095Z,56.64
2023-11-01T01:45:25.679Z,56.60
2023-11-01T01:47:27.404Z,56.69
2023-11-01T01:49:33.333Z,56.62
2023-11-01T01:51:41.706Z,56.72
2023-11-01T01:53:48.037Z,56.70
2023-11-01T01:55:49.994Z,56.62
2023-11-01T01:57:51.569Z,56.65
2023-11-01T01:59:53.941Z,56.78
2023-11-01T02:01:57.175Z,56.83
2023-11-01T02:04:00.804Z,56.62
2023-11-01T02:06:02.952Z,56.65
2023-11-01T02:08:08.689Z,56.75
2023-11-01T02:10:15.341Z,56.69
2023-11-01T02:12:18.443Z,56.76
2023-11-01T02:14:22.449Z,56.76
2023-11-01T02:16:24.237Z,56.72
2023-11-01T02:18:25.805Z,56.53
2023-11-01T02:20:28.134Z,56.88
2023-11-01T02:22:30.000Z,56.85
2023-11-01T02:24:32.774Z,56.71
2023-11-01T02:26:37.255Z,56.79
2023-11-01T02:28:41.112Z,56.59
2023-11-01T02:30:43.686Z,56.66
2023-11-01T02:32:49.379Z,56.76
2023-11-01T02:34:51.079Z,56.52
2023-11-01T02:36:52.693Z,56.87
2023-11-01T02:38:54.375Z,56.68
2023-11-01T02:40:56.107Z,56.81
2023-11-01T02:42:57.706Z,56.74
2023-11-01T02:44:59.155Z,56.63
2023-11-01T02:47:00.601Z,56.86
2023-11-01T02:49:04.847Z,56.80
2023-11-01T02:51:06.481Z,56.78
2023-11-01T02:53:07.947Z,56.94
2023-11-01T02:55:14.096Z,56.91
2023-11-01T02:57:15.545Z,57.00
2023-11-01T02:59:17.081Z,57.06
2023-11-01T03:01:20.921Z,56.97
2023-11-01T03:03:22.566Z,57.19
2023-11-01T03:05:26.746Z,57.13
2023-11-01T03:07:28.289Z,57.13
2023-11-01T03:09:29.738Z,57.02
2023-11-01T03:11:31.215Z,57.14
2023-11-01T03:13:32.712Z,57.00
2023-11-01T03:15:34.337Z,57.07
2023-11-01T03:17:39.629Z,57.09
2023-11-01T03:19:41.514Z,56.99
2023-11-01T03:21:43.124Z,56.91
2023-11-01T03:23:44.610Z,57.14
2023-11-01T03:25:46.148Z,56.95
2023-11-01T03:27:47.614Z,57.10
2023-11-01T03:29:49.407Z,57.05
2023-11-01T03:31:50.962Z,57.02
2023-11-01T03:33:52.938Z,57.09
2023-11-01T03:35:54.481Z,57.04
2023-11-01T03:37:56.597Z,56.83
2023-11-01T03:39:59.757Z,57.22
2023-11-01T03:42:05.652Z,57.29
2023-11-01T03:44:07.592Z,57.13
2023-11-01T03:46:09.126Z,57.12
2023-11-01T03:48:10.798Z,57.02
2023-11-01T03:50:12.416Z,57.32
2023-11-01T03:52:13.949Z,57.16
2023-11-01T03:54:15.402Z,57.23
2023-11-01T03:56:16.916Z,57.20
2023-11-01T03:58:18.568Z,57.41
2023-11-01T04:00:22.610Z,57.44
2023-11-01T04:02:24.421Z,57.42
2023-11-01T04:04:26.174Z,57.31
2023-11-01T04:06:27.636Z,57.32
2023-11-01T04:08:29.147Z,57.11
2023-11-01T04:10:31.026Z,57.51
2023-11-01T04:12:32.484Z,57.25
2023-11-01T04:14:33.998Z,57.28
2023-11-01T04:16:35.657Z,57.28
2023-11-01T04:18:37.146Z,57.53
2023-11-01T04:20:38.695Z,57.44
2023-11-01T04:22:40.622Z,57.65
2023-11-01T04:24:42.893Z,57.58
2023-11-01T04:26:46.475Z,57.52
2023-11-01T04:28:48.318Z,57.41
2023-11-01T04:30:50.619Z,57.51
2023-11-01T04:32:52.243Z,57.38
2023-11-01T04:34:55.758Z,57.61
2023-11-01T04:36:57.233Z,57.37
2023-11-01T04:38:58.895Z,57.53
2023-11-01T04:41:00.560Z,57.58
2023-11-01T04:43:02.052Z,57.59
2023-11-01T04:45:03.710Z,57.49
2023-11-01T04:47:05.185Z,57.38
2023-11-01T04:49:07.186Z,57.73
2023-11-01T04:51:08.806Z,57.47
2023-11-01T04:53:10.896Z,57.66
2023-11-01T04:55:12.667Z,57.56
2023-11-01T04:57:14.146Z,57.61
2023-11-01T04:59:15.668Z,57.38
2023-11-01T05:01:17.251Z,57.80
2023-11-01T05:03:18.959Z,57.56
2023-11-01T05:05:20.537Z,57.55
2023-11-01T05:07:22.561Z,57.48
2023-11-01T05:09:24.064Z,57.74
2023-11-01T05:11:25.958Z,57.71
2023-11-01T05:13:27.521Z,57.79
2023-11-01T05:15:29.141Z,57.76
2023-11-01T05:17:31.280Z,57.71
2023-11-01T05:19:32.848Z,57.74
2023-11-01T05:21:34.296Z,57.80
2023-11-01T05:23:35.790Z,57.71
2023-11-01T05:25:37.276Z,57.60
2023-11-01T05:27:38.803Z,57.72
2023-11-01T05:29:41.503Z,57.72
2023-11-01T05:31:43.020Z,57.57
2023-11-01T05:33:44.922Z,57.57
2023-11-01T05:35:46.877Z,57.70
2023-11-01T05:37:48.433Z,57.89
2023-11-01T05:39:50.340Z,57.64
2023-11-01T05:41:52.607Z,57.70
2023-11-01T05:43:54.168Z,57.81
2023-11-01T05:45:55.638Z,57.74
2023-11-01T05:47:57.591Z,57.72
2023-11-01T05:49:59.149Z,57.94
2023-11-01T05:52:00.620Z,57.83
2023-11-01T05:54:02.630Z,57.75
2023-11-01T05:56:09.759Z,57.86
2023-11-01T05:58:12.828Z,57.87
2023-11-01T06:00:18.757Z,57.51
2023-11-01T06:02:20.410Z,57.92
2023-11-01T06:04:22.291Z,57.85
2023-11-01T06:06:27.500Z,58.06
2023-11-01T06:08:29.045Z,57.92
2023-11-01T06:10:30.840Z,57.83
2023-11-01T06:12:32.441Z,58.04
2023-11-01T06:14:33.987Z,57.95
2023-11-01T06:16:35.514Z,57.88
2023-11-01T06:18:37.685Z,58.01
2023-11-01T06:20:39.223Z,57.98
2023-11-01T06:22:41.144Z,58.05
2023-11-01T06:24:42.668Z,58.06
2023-11-01T06:26:45.363Z,58.00
2023-11-01T06:28:46.865Z,58.05
2023-11-01T06:30:49.420Z,58.02
2023-11-01T06:32:51.051Z,58.04
2023-11-01T06:34:52.586Z,57.77
2023-11-01T06:36:54.049Z,58.07
2023-11-01T06:38:55.539Z,57.89
2023-11-01T06:40:57.032Z,57.90
2023-11-01T06:42:58.858Z,57.98
2023-11-01T06:45:00.343Z,57.83
2023-11-01T06:47:01.795Z,58.04
2023-11-01T06:49:03.403Z,57.94
2023-11-01T06:51:05.129Z,57.96
2023-11-01T06:53:06.934Z,57.93
2023-11-01T06:55:08.584Z,58.21
2023-11-01T06:57:11.549Z,57.93
2023-11-01T06:59:14.432Z,58.25
2023-11-01T07:01:16.332Z,58.03
2023-11-01T07:03:17.975Z,58.12
2023-11-01T07:05:19.618Z,58.20
2023-11-01T07:07:21.320Z,58.25
2023-11-01T07:09:24.010Z,58.17
2023-11-01T07:11:26.177Z,58.14
2023-11-01T07:13:29.007Z,58.24
2023-11-01T07:15:30.594Z,58.20
2023-11-01T07:17:32.356Z,58.11
2023-11-01T07:19:34.347Z,58.31
2023-11-01T07:21:37.243Z,58.49
2023-11-01T07:23:38.947Z,58.28
2023-11-01T07:25:40.416Z,58.52
2023-11-01T07:27:41.919Z,58.47
2023-11-01T07:29:43.421Z,58.53
2023-11-01T07:31:49.044Z,58.48
2023-11-01T07:33:50.720Z,58.63
2023-11-01T07:35:52.421Z,58.63
2023-11-01T07:37:53.954Z,58.84
2023-11-01T07:39:55.396Z,58.73
2023-11-01T07:41:56.877Z,58.78
2023-11-01T07:43:58.638Z,58.64
2023-11-01T07:46:00.366Z,59.25
2023-11-01T07:48:02.140Z,59.21
2023-11-01T07:50:05.377Z,59.15
2023-11-01T07:52:06.921Z,58.99
2023-11-01T07:54:10.568Z,59.12
2023-11-01T07:56:12.002Z,59.11
2023-11-01T07:58:13.529Z,58.97
2023-11-01T08:00:15.572Z,58.81
2023-11-01T08:02:17.521Z,59.12
2023-11-01T08:04:19.389Z,59.10
2023-11-01T08:06:21.026Z,59.19
2023-11-01T08:08:22.820Z,59.20
2023-11-01T08:10:24.279Z,59.13
2023-11-01T08:12:25.745Z,59.18
2023-11-01T08:14:27.763Z,58.94
2023-11-01T08:16:29.417Z,58.92
2023-11-01T08:18:32.359Z,59.25
2023-11-01T08:20:34.207Z,58.97
2023-11-01T08:22:36.947Z,58.92
2023-11-01T08:24:39.543Z,58.70
2023-11-01T08:26:41.059Z,58.79
2023-11-01T08:28:42.740Z,58.93
2023-11-01T08:30:44.450Z,59.01
2023-11-01T08:32:46.057Z,59.08
2023-11-01T08:34:47.614Z,58.94
2023-11-01T08:36:49.264Z,58.86
2023-11-01T08:38:50.779Z,58.80
2023-11-01T08:40:52.223Z,58.89
2023-11-01T08:42:53.779Z,58.95
2023-11-01T08:44:55.226Z,58.96
2023-11-01T08:46:56.657Z,59.13
2023-11-01T08:48:58.511Z,59.01
2023-11-01T08:51:00.007Z,58.97
2023-11-01T08:53:01.481Z,58.91
2023-11-01T08:55:03.140Z,59.06
2023-11-01T08:57:05.382Z,59.05
2023-11-01T08:59:07.038Z,59.04
2023-11-01T09:01:08.551Z,59.14
2023-11-01T09:03:10.735Z,58.99
2023-11-01T09:05:13.496Z,59.10
2023-11-01T09:07:15.024Z,59.20
2023-11-01T09:09:16.488Z,59.13
2023-11-01T09:11:18.069Z,59.12
2023-11-01T09:13:19.972Z,59.21
2023-11-01T09:15:21.585Z,59.27
2023-11-01T09:17:23.106Z,59.27
2023-11-01T09:19:24.621Z,59.27
2023-11-01T09:21:26.548Z,59.34
2023-11-01T09:23:29.002Z,59.12
2023-11-01T09:25:30.509Z,59.03
2023-11-01T09:27:31.980Z,59.21
2023-11-01T09:29:33.611Z,59.03
2023-11-01T09:31:38.116Z,59.15
2023-11-01T09:33:39.943Z,59.07
2023-11-01T09:35:41.523Z,59.13
2023-11-01T09:37:43.111Z,58.98
2023-11-01T09:39:44.635Z,59.11
2023-11-01T09:41:55.163Z,59.16
2023-11-01T09:43:59.297Z,59.14
2023-11-01T09:46:02.329Z,59.00
2023-11-01T09:48:04.305Z,59.01
2023-11-01T09:50:09.615Z,59.07
2023-11-01T09:52:12.186Z,59.14
2023-11-01T09:54:16.817Z,58.91
2023-11-01T09:56:22.417Z,59.01
2023-11-01T09:58:24.813Z,59.00
2023-11-01T10:00:26.419Z,58.98
2023-11-01T10:02:28.263Z,58.88
2023-11-01T10:04:29.958Z,58.91
2023-11-01T10:06:31.449Z,58.76
2023-11-01T10:08:33.297Z,58.98
2023-11-01T10:10:36.330Z,59.28
2023-11-01T10:12:39.155Z,59.30
2023-11-01T10:14:41.139Z,59.27
2023-11-01T10:16:42.756Z,59.07
2023-11-01T10:18:45.057Z,58.92
2023-11-01T10:20:47.501Z,58.57
2023-11-01T10:22:49.272Z,58.63
2023-11-01T10:24:50.782Z,58.85
2023-11-01T10:26:56.634Z,57.82
2023-11-01T10:28:59.776Z,58.30
2023-11-01T10:31:01.376Z,58.02
2023-11-01T10:33:03.373Z,57.69
2023-11-01T10:35:11.940Z,57.98
2023-11-01T10:37:13.640Z,58.10
2023-11-01T10:39:16.278Z,58.39
2023-11-01T10:41:21.980Z,58.08
2023-11-01T10:43:30.572Z,58.40
2023-11-01T10:45:33.046Z,57.96
2023-11-01T10:47:36.631Z,58.24
2023-11-01T10:49:39.031Z,57.87
2023-11-01T10:51:42.139Z,57.92
2023-11-01T10:53:44.165Z,57.82
2023-11-01T10:55:46.071Z,57.82
2023-11-01T10:57:50.485Z,58.08
2023-11-01T11:00:17.334Z,58.21
2023-11-01T11:02:25.725Z,57.19
2023-11-01T11:04:35.637Z,57.75
2023-11-01T11:06:45.846Z,58.42
2023-11-01T11:09:20.829Z,58.70
2023-11-01T11:11:22.353Z,58.54
2023-11-01T11:13:23.743Z,58.44
2023-11-01T11:15:52.222Z,58.07
2023-11-01T11:18:06.303Z,57.58
2023-11-01T11:20:14.980Z,57.36
2023-11-01T11:22:17.598Z,57.21
2023-11-01T11:24:40.074Z,56.35
2023-11-01T11:26:42.369Z,56.98
2023-11-01T11:28:48.935Z,56.87
2023-11-01T11:31:12.893Z,56.25
2023-11-01T11:33:18.182Z,56.58
2023-11-01T11:35:21.523Z,56.79
2023-11-01T11:37:29.861Z,56.21
2023-11-01T11:39:55.435Z,56.00
2023-11-01T11:41:57.930Z,56.37
2023-11-01T11:44:06.370Z,56.58
2023-11-01T11:46:37.078Z,56.12
2023-11-01T11:48:42.197Z,55.51
2023-11-01T11:50:44.363Z,55.90
2023-11-01T11:52:50.383Z,55.70
2023-11-01T11:54:51.867Z,55.05
2023-11-01T11:57:02.342Z,55.05
2023-11-01T11:59:06.765Z,54.36
2023-11-01T12:01:08.804Z,54.62
2023-11-01T12:03:25.306Z,54.29
2023-11-01T12:05:33.433Z,54.01
2023-11-01T12:07:42.777Z,53.93
2023-11-01T12:09:49.525Z,54.02
2023-11-01T12:11:55.399Z,53.68
2023-11-01T12:13:56.885Z,53.48
2023-11-01T12:15:58.896Z,53.66
2023-11-01T12:18:13.527Z,53.58
2023-11-01T12:20:30.823Z,53.55
2023-11-01T12:22:38.010Z,53.43
2023-11-01T12:24:39.477Z,54.00
2023-11-01T12:26:57.623Z,53.98
2023-11-01T12:29:07.543Z,54.07
2023-11-01T12:31:16.265Z,54.08
2023-11-01T12:33:21.862Z,53.13
2023-11-01T12:35:23.440Z,53.88
2023-11-01T12:37:27.983Z,53.49
2023-11-01T12:39:35.911Z,52.04
2023-11-01T12:41:39.138Z,52.72
2023-11-01T12:43:53.540Z,51.59
2023-11-01T12:45:55.612Z,51.45
2023-11-01T12:47:58.804Z,51.78
2023-11-01T12:50:03.660Z,51.11
2023-11-01T12:52:06.590Z,51.07
2023-11-01T12:54:09.860Z,51.12
2023-11-01T12:56:11.336Z,50.73
2023-11-01T12:58:12.882Z,49.53
2023-11-01T13:00:16.208Z,50.31
2023-11-01T13:02:18.885Z,49.71
2023-11-01T13:04:21.785Z,50.06
2023-11-01T13:06:24.912Z,49.75
2023-11-01T13:08:26.396Z,49.71
2023-11-01T13:10:27.928Z,49.49
2023-11-01T13:12:29.992Z,49.58
2023-11-01T13:14:34.038Z,49.48
2023-11-01T13:16:38.033Z,49.10
2023-11-01T13:18:40.096Z,49.18
2023-11-01T13:20:41.739Z,49.27
2023-11-01T13:22:43.301Z,48.81
2023-11-01T13:24:47.234Z,49.06
2023-11-01T13:26:48.715Z,48.70
2023-11-01T13:28:50.178Z,48.88
2023-11-01T13:30:51.718Z,48.65
2023-11-01T13:32:53.228Z,48.28
2023-11-01T13:34:55.705Z,48.50
2023-11-01T13:36:57.759Z,47.99
2023-11-01T13:38:59.294Z,48.01
2023-11-01T13:41:00.798Z,47.62
2023-11-01T13:43:02.337Z,47.85
2023-11-01T13:45:04.820Z,47.79
2023-11-01T13:47:06.482Z,47.73
2023-11-01T13:49:08.072Z,47.58
2023-11-01T13:51:10.629Z,47.72
2023-11-01T13:53:12.173Z,47.67
2023-11-01T13:55:14.122Z,47.92
2023-11-01T13:57:15.861Z,47.38
2023-11-01T13:59:17.365Z,47.81
2023-11-01T14:01:19.358Z,47.99
2023-11-01T14:03:20.992Z,47.40
2023-11-01T14:05:24.898Z,47.77
2023-11-01T14:07:27.722Z,47.47
2023-11-01T14:09:29.218Z,47.60
2023-11-01T14:11:30.719Z,47.50
2023-11-01T14:13:32.224Z,47.53
2023-11-01T14:15:35.158Z,47.63
2023-11-01T14:17:36.696Z,47.57
2023-11-01T14:19:38.458Z,47.83
2023-11-01T14:21:40.131Z,47.69
2023-11-01T14:23:44.500Z,47.25
2023-11-01T14:25:46.438Z,47.63
2023-11-01T14:27:50.408Z,47.54
2023-11-01T14:29:52.150Z,47.78
2023-11-01T14:31:53.664Z,47.83
2023-11-01T14:33:55.212Z,47.52
2023-11-01T14:35:56.712Z,47.39
2023-11-01T14:38:00.171Z,47.86
2023-11-01T14:40:02.240Z,47.46
2023-11-01T14:42:03.864Z,47.40
2023-11-01T14:44:06.442Z,47.35
2023-11-01T14:46:08.933Z,47.48
2023-11-01T14:48:10.698Z,47.37
2023-11-01T14:50:12.221Z,47.30
2023-11-01T14:52:14.014Z,47.58
2023-11-01T14:54:16.202Z,47.22
2023-11-01T14:56:18.687Z,47.70
2023-11-01T14:58:20.252Z,47.55
2023-11-01T15:00:21.917Z,47.67
2023-11-01T15:02:24.230Z,47.30
2023-11-01T15:04:25.758Z,47.39
2023-11-01T15:06:27.290Z,47.76
2023-11-01T15:08:28.758Z,47.81
2023-11-01T15:10:30.336Z,47.49
2023-11-01T15:12:31.861Z,47.71
2023-11-01T15:14:33.362Z,47.53
2023-11-01T15:16:35.165Z,47.68
2023-11-01T15:18:37.134Z,47.80
2023-11-01T15:20:39.596Z,47.85
2023-11-01T15:22:41.899Z,47.84
2023-11-01T15:24:48.916Z,47.58
2023-11-01T15:26:50.708Z,47.48
2023-11-01T15:28:53.874Z,47.67
2023-11-01T15:30:55.429Z,47.46
2023-11-01T15:32:57.007Z,47.86
2023-11-01T15:34:58.556Z,47.61
2023-11-01T15:37:02.043Z,47.74
2023-11-01T15:39:05.017Z,47.59
2023-11-01T15:41:06.559Z,47.86
2023-11-01T15:43:08.313Z,47.82
2023-11-01T15:45:11.291Z,47.58
2023-11-01T15:47:13.256Z,47.63
2023-11-01T15:49:17.633Z,47.78
2023-11-01T15:51:19.163Z,47.61
2023-11-01T15:53:20.795Z,47.83
2023-11-01T15:55:22.329Z,47.29
2023-11-01T15:57:25.682Z,47.53
2023-11-01T15:59:27.821Z,47.66
2023-11-01T16:01:29.258Z,47.62
2023-11-01T16:03:31.567Z,47.88
2023-11-01T16:05:33.822Z,47.88
2023-11-01T16:07:35.511Z,47.60
2023-11-01T16:09:39.224Z,47.94
2023-11-01T16:11:41.079Z,47.75
2023-11-01T16:13:42.886Z,47.57
2023-11-01T16:15:44.652Z,47.58
2023-11-01T16:17:46.684Z,47.94
2023-11-01T16:19:48.275Z,47.59
2023-11-01T16:21:49.861Z,47.65
2023-11-01T16:23:51.336Z,47.75
2023-11-01T16:25:55.066Z,47.91
2023-11-01T16:27:56.688Z,47.50
2023-11-01T16:29:58.223Z,47.56
2023-11-01T16:31:59.761Z,47.63
2023-11-01T16:34:02.032Z,47.95
2023-11-01T16:36:04.244Z,47.81
2023-11-01T16:38:05.892Z,47.95
2023-11-01T16:40:08.021Z,48.08
2023-11-01T16:42:09.567Z,47.96
2023-11-01T16:44:11.873Z,47.90
2023-11-01T16:46:15.658Z,47.94
2023-11-01T16:48:18.637Z,48.17
2023-11-01T16:50:20.174Z,47.81
2023-11-01T16:52:22.593Z,47.94
2023-11-01T16:54:24.081Z,48.03
2023-11-01T16:56:25.714Z,48.05
2023-11-01T16:58:29.012Z,47.77
2023-11-01T17:00:30.567Z,47.97
2023-11-01T17:02:44.917Z,48.14
2023-11-01T17:04:49.740Z,48.01
2023-11-01T17:06:51.238Z,47.94
2023-11-01T17:08:53.327Z,48.00
2023-11-01T17:10:54.814Z,48.24
2023-11-01T17:12:56.973Z,47.95
2023-11-01T17:14:58.480Z,48.11
2023-11-01T17:17:01.888Z,47.99
2023-11-01T17:19:03.490Z,48.24
2023-11-01T17:21:08.790Z,48.06
2023-11-01T17:23:11.505Z,48.38
2023-11-01T17:25:32.076Z,48.16
2023-11-01T17:27:36.617Z,48.36
2023-11-01T17:29:38.834Z,48.46
2023-11-01T17:31:47.796Z,48.30
2023-11-01T17:33:49.544Z,48.58
2023-11-01T17:35:51.360Z,48.45
2023-11-01T17:37:52.845Z,48.45
2023-11-01T17:39:54.617Z,48.50
2023-11-01T17:41:59.774Z,48.50
2023-11-01T17:44:01.354Z,48.64
2023-11-01T17:46:02.825Z,48.73
2023-11-01T17:48:05.309Z,48.62
2023-11-01T17:50:09.372Z,48.75
2023-11-01T17:52:11.270Z,48.67
2023-11-01T17:54:17.144Z,48.64
2023-11-01T17:56:19.164Z,48.82
2023-11-01T17:58:20.696Z,48.83
2023-11-01T18:00:25.759Z,48.87
2023-11-01T18:02:28.008Z,48.89
2023-11-01T18:04:30.524Z,48.88
2023-11-01T18:06:32.223Z,48.84
2023-11-01T18:08:34.745Z,48.91
2023-11-01T18:10:40.810Z,48.92
2023-11-01T18:12:42.268Z,48.92
2023-11-01T18:14:43.988Z,48.97
2023-11-01T18:16:45.492Z,49.06
2023-11-01T18:18:49.764Z,49.06
2023-11-01T18:20:51.286Z,49.00
2023-11-01T18:22:57.105Z,49.02
2023-11-01T18:24:58.554Z,49.06
2023-11-01T18:27:00.071Z,49.11
2023-11-01T18:29:06.119Z,49.14
2023-11-01T18:31:19.729Z,49.01
2023-11-01T18:33:21.308Z,49.26
2023-11-01T18:35:31.034Z,49.14
2023-11-01T18:37:34.120Z,49.19
2023-11-01T18:39:35.637Z,49.32
2023-11-01T18:41:39.310Z,49.27
2023-11-01T18:43:41.017Z,49.24
2023-11-01T18:45:42.550Z,49.20
2023-11-01T18:47:44.129Z,49.38
2023-11-01T18:50:00.226Z,49.35
2023-11-01T18:52:02.210Z,49.29
2023-11-01T18:54:04.472Z,49.36
2023-11-01T18:56:06.331Z,49.29
2023-11-01T18:58:08.055Z,49.36
2023-11-01T19:00:11.096Z,49.50
2023-11-01T19:02:34.280Z,49.30
2023-11-01T19:04:36.105Z,49.45
2023-11-01T19:06:37.655Z,49.49
2023-11-01T19:08:41.676Z,49.46
2023-11-01T19:10:50.134Z,49.38
2023-11-01T19:12:53.599Z,49.49
2023-11-01T19:14:57.165Z,49.31
2023-11-01T19:16:58.611Z,49.43
2023-11-01T19:19:02.443Z,49.57
2023-11-01T19:21:06.574Z,49.48
2023-11-01T19:23:08.064Z,49.54
2023-11-01T19:25:11.704Z,49.45
2023-11-01T19:27:18.467Z,49.40
2023-11-01T19:29:27.963Z,49.55
2023-11-01T19:31:29.586Z,49.53
2023-11-01T19:33:33.699Z,49.48
2023-11-01T19:35:39.150Z,49.45
2023-11-01T19:37:40.846Z,49.63
2023-11-01T19:39:42.402Z,49.62
2023-11-01T19:41:45.259Z,49.79
2023-11-01T19:43:46.832Z,49.57
2023-11-01T19:45:51.144Z,49.62
2023-11-01T19:47:52.672Z,49.49
2023-11-01T19:49:57.636Z,49.63
2023-11-01T19:52:02.068Z,49.79
2023-11-01T19:54:03.994Z,49.63
2023-11-01T19:56:05.783Z,49.67
2023-11-01T19:58:09.727Z,49.67
2023-11-01T20:00:12.845Z,49.66
2023-11-01T20:02:15.222Z,49.77
2023-11-01T20:04:17.908Z,49.73
2023-11-01T20:06:19.563Z,49.63
2023-11-01T20:08:21.131Z,49.63
2023-11-01T20:10:22.757Z,49.58
2023-11-01T20:12:28.680Z,49.61
2023-11-01T20:14:30.624Z,49.71
2023-11-01T20:16:32.073Z,49.80
2023-11-01T20:18:35.307Z,49.90
2023-11-01T20:20:36.859Z,49.82
2023-11-01T20:22:41.952Z,49.82
2023-11-01T20:24:43.743Z,49.91
2023-11-01T20:26:45.287Z,49.89
2023-11-01T20:28:49.416Z,49.98
2023-11-01T20:30:52.229Z,49.90
2023-11-01T20:32:53.778Z,49.81
2023-11-01T20:34:57.516Z,49.97
2023-11-01T20:36:59.941Z,49.92
2023-11-01T20:39:01.427Z,49.88
2023-11-01T20:41:04.446Z,49.86
2023-11-01T20:43:05.893Z,49.93
2023-11-01T20:45:07.974Z,50.00
2023-11-01T20:47:09.435Z,49.73
2023-11-01T20:49:11.370Z,49.74
2023-11-01T20:51:15.184Z,49.94
2023-11-01T20:53:17.957Z,49.98
2023-11-01T20:55:21.593Z,49.90
2023-11-01T20:57:24.755Z,49.98
2023-11-01T20:59:26.224Z,49.83
2023-11-01T21:01:27.684Z,50.07
2023-11-01T21:03:29.376Z,50.06
2023-11-01T21:05:31.226Z,49.97
2023-11-01T21:07:32.710Z,49.93
2023-11-01T21:09:34.544Z,50.12
2023-11-01T21:11:36.039Z,50.07
2023-11-01T21:13:37.791Z,49.92
2023-11-01T21:15:39.246Z,49.88
2023-11-01T21:17:41.606Z,50.10
2023-11-01T21:19:47.850Z,50.08
2023-11-01T21:21:51.426Z,50.08
2023-11-01T21:23:53.396Z,50.03
2023-11-01T21:25:54.979Z,50.03
2023-11-01T21:28:00.192Z,50.14
2023-11-01T21:30:02.390Z,50.21
2023-11-01T21:32:04.063Z,50.11
2023-11-01T21:34:06.937Z,50.12
2023-11-01T21:36:08.691Z,50.03
2023-11-01T21:38:10.178Z,50.18
2023-11-01T21:40:12.423Z,50.04
2023-11-01T21:42:14.834Z,50.37
2023-11-01T21:44:44.084Z,50.31
2023-11-01T21:46:45.881Z,50.17
2023-11-01T21:48:48.862Z,50.41
2023-11-01T21:51:00.373Z,50.28
2023-11-01T21:53:06.829Z,50.27
2023-11-01T21:55:30.998Z,50.30
2023-11-01T21:57:32.726Z,50.49
2023-11-01T21:59:35.817Z,50.47
2023-11-01T22:01:37.332Z,50.54
2023-11-01T22:03:40.026Z,50.39
2023-11-01T22:05:41.874Z,50.41
2023-11-01T22:07:44.209Z,50.43
2023-11-01T22:09:49.596Z,50.44
2023-11-01T22:11:52.976Z,50.42
2023-11-01T22:14:00.574Z,50.34
2023-11-01T22:16:02.011Z,50.44
2023-11-01T22:18:05.885Z,50.36
2023-11-01T22:20:09.413Z,50.28
2023-11-01T22:22:14.308Z,50.47
2023-11-01T22:24:16.524Z,50.24
2023-11-01T22:26:22.739Z,50.33
2023-11-01T22:28:28.034Z,50.15
2023-11-01T22:30:33.409Z,50.22
2023-11-01T22:32:35.368Z,50.01
2023-11-01T22:34:43.960Z,49.95
2023-11-01T22:36:47.964Z,50.02
2023-11-01T22:38:49.881Z,49.99
2023-11-01T22:40:55.309Z,49.81
2023-11-01T22:42:58.305Z,49.68
2023-11-01T22:45:02.640Z,49.94
2023-11-01T22:47:05.782Z,50.01
2023-11-01T22:49:08.452Z,49.90
2023-11-01T22:51:10.447Z,49.81
2023-11-01T22:53:11.884Z,49.91
2023-11-01T22:55:13.753Z,49.90
2023-11-01T22:57:15.296Z,49.86
2023-11-01T22:59:16.765Z,49.75
2023-11-01T23:01:18.448Z,49.73
2023-11-01T23:03:20.211Z,49.68
2023-11-01T23:05:21.786Z,49.75
2023-11-01T23:07:23.251Z,49.55
2023-11-01T23:09:24.801Z,49.49
2023-11-01T23:11:26.292Z,49.35
2023-11-01T23:13:27.762Z,49.58
2023-11-01T23:15:29.859Z,49.58
2023-11-01T23:17:31.528Z,49.60
2023-11-01T23:19:33.051Z,49.43
2023-11-01T23:21:35.416Z,49.56
2023-11-01T23:23:37.676Z,49.59
2023-11-01T23:25:39.161Z,49.43
2023-11-01T23:27:40.662Z,49.70
2023-11-01T23:29:42.837Z,49.48
2023-11-01T23:31:46.220Z,49.59
2023-11-01T23:33:47.798Z,49.46
2023-11-01T23:35:49.612Z,49.44
2023-11-01T23:37:51.309Z,49.46
2023-11-01T23:39:52.838Z,49.53
2023-11-01T23:41:54.762Z,49.45
2023-11-01T23:44:00.707Z,49.35
2023-11-01T23:46:09.227Z,49.55
2023-11-01T23:48:10.805Z,49.47
2023-11-01T23:50:31.625Z,49.26
2023-11-01T23:52:35.948Z,49.46
2023-11-01T23:54:37.452Z,49.52
2023-11-01T23:56:39.029Z,49.57
2023-11-01T23:58:45.203Z,49.50
